createdAt,value
2022-08-14T00:00:20.062Z,27.71
2022-08-14T00:02:22.142Z,27.67
2022-08-14T00:04:34.249Z,27.62
2022-08-14T00:06:38.192Z,27.61
2022-08-14T00:08:44.931Z,27.63
2022-08-14T00:10:52.998Z,27.58
2022-08-14T00:12:57.227Z,27.56
2022-08-14T00:15:00.752Z,27.53
2022-08-14T00:17:05.618Z,27.49
2022-08-14T00:19:19.792Z,27.50
2022-08-14T00:21:28.413Z,27.38
2022-08-14T00:23:33.531Z,27.42
2022-08-14T00:25:41.804Z,27.33
2022-08-14T00:27:45.344Z,27.28
2022-08-14T00:29:51.170Z,27.30
2022-08-14T00:31:55.952Z,27.28
2022-08-14T00:33:58.764Z,27.24
2022-08-14T00:36:36.955Z,27.20
2022-08-14T00:38:44.887Z,27.17
2022-08-14T00:40:48.501Z,27.11
2022-08-14T00:42:56.190Z,27.08
2022-08-14T00:44:58.643Z,27.04
2022-08-14T00:47:03.683Z,27.08
2022-08-14T00:49:11.453Z,27.07
2022-08-14T00:51:16.677Z,27.06
2022-08-14T00:53:18.687Z,27.00
2022-08-14T00:55:23.238Z,26.98
2022-08-14T00:57:28.107Z,26.94
2022-08-14T00:59:31.812Z,26.91
2022-08-14T01:01:46.248Z,26.85
2022-08-14T01:03:49.671Z,26.89
2022-08-14T01:05:55.854Z,26.80
2022-08-14T01:08:02.040Z,26.77
2022-08-14T01:10:06.065Z,26.78
2022-08-14T01:12:09.296Z,26.77
2022-08-14T01:14:25.284Z,26.76
2022-08-14T01:16:31.634Z,26.73
2022-08-14T01:18:57.763Z,26.71
2022-08-14T01:21:08.369Z,26.66
2022-08-14T01:23:18.558Z,26.60
2022-08-14T01:25:21.095Z,26.58
2022-08-14T01:27:25.040Z,26.55
2022-08-14T01:29:58.860Z,26.55
2022-08-14T01:31:52.741Z,26.51
2022-08-14T01:35:18.199Z,26.50
2022-08-14T01:36:23.208Z,26.45
2022-08-14T01:38:26.635Z,26.48
2022-08-14T01:40:36.323Z,26.39
2022-08-14T01:42:44.301Z,26.42
2022-08-14T01:44:54.353Z,26.37
2022-08-14T01:47:01.119Z,26.37
2022-08-14T01:49:08.729Z,26.37
2022-08-14T01:51:19.192Z,26.34
2022-08-14T01:53:22.772Z,26.25
2022-08-14T01:55:31.553Z,26.23
2022-08-14T01:58:01.542Z,26.23
2022-08-14T02:00:01.116Z,26.18
2022-08-14T02:02:19.036Z,26.18
2022-08-14T02:04:55.772Z,26.16
2022-08-14T02:06:48.562Z,26.15
2022-08-14T02:08:57.019Z,26.12
2022-08-14T02:11:23.325Z,26.11
2022-08-14T02:13:25.444Z,26.11
2022-08-14T02:15:27.816Z,26.09
2022-08-14T02:17:33.382Z,26.04
2022-08-14T02:19:36.067Z,26.00
2022-08-14T02:21:50.389Z,25.97
2022-08-14T02:23:54.558Z,25.93
2022-08-14T02:25:56.636Z,25.89
2022-08-14T02:28:25.300Z,25.79
2022-08-14T02:30:21.417Z,25.70
2022-08-14T02:32:30.575Z,25.72
2022-08-14T02:34:38.708Z,25.71
2022-08-14T02:37:03.603Z,25.67
2022-08-14T02:39:10.291Z,25.63
2022-08-14T02:41:13.507Z,25.65
2022-08-14T02:43:15.318Z,25.62
2022-08-14T02:45:17.736Z,25.58
2022-08-14T02:47:20.575Z,25.52
2022-08-14T02:49:26.766Z,25.56
2022-08-14T02:51:36.734Z,25.48
2022-08-14T02:53:42.241Z,25.36
2022-08-14T02:55:44.356Z,25.36
2022-08-14T02:57:51.782Z,25.36
2022-08-14T03:00:00.507Z,25.27
2022-08-14T03:02:04.611Z,25.18
2022-08-14T03:04:07.713Z,25.19
2022-08-14T03:06:20.551Z,25.12
2022-08-14T03:08:38.433Z,25.14
2022-08-14T03:10:42.073Z,25.07
2022-08-14T03:12:51.026Z,25.09
2022-08-14T03:14:53.637Z,25.06
2022-08-14T03:16:55.862Z,25.07
2022-08-14T03:19:01.027Z,25.00
2022-08-14T03:21:06.131Z,24.98
2022-08-14T03:23:09.763Z,24.98
2022-08-14T03:25:12.392Z,24.97
2022-08-14T03:27:15.709Z,24.95
2022-08-14T03:29:20.901Z,24.94
2022-08-14T03:31:28.129Z,24.90
2022-08-14T03:33:37.876Z,24.87
2022-08-14T03:36:00.409Z,24.85
2022-08-14T03:39:15.934Z,24.81
2022-08-14T03:40:34.152Z,24.81
2022-08-14T03:42:37.072Z,24.75
2022-08-14T03:45:20.312Z,24.67
2022-08-14T03:47:06.782Z,24.68
2022-08-14T03:49:10.405Z,24.70
2022-08-14T03:51:16.121Z,24.75
2022-08-14T03:53:20.267Z,24.67
2022-08-14T03:55:22.231Z,24.64
2022-08-14T03:57:24.515Z,24.65
2022-08-14T03:59:28.409Z,24.63
2022-08-14T04:01:39.203Z,24.62
2022-08-14T04:03:48.448Z,24.59
2022-08-14T04:05:57.121Z,24.57
2022-08-14T04:08:30.038Z,24.60
2022-08-14T04:10:33.068Z,24.58
2022-08-14T04:12:36.186Z,24.55
2022-08-14T04:14:38.137Z,24.51
2022-08-14T04:16:43.657Z,24.54
2022-08-14T04:18:48.336Z,24.55
2022-08-14T04:20:54.664Z,24.56
2022-08-14T04:22:57.294Z,24.52
2022-08-14T04:25:04.904Z,24.55
2022-08-14T04:27:17.469Z,24.56
2022-08-14T04:29:19.324Z,24.57
2022-08-14T04:32:01.030Z,24.52
2022-08-14T04:33:46.984Z,24.53
2022-08-14T04:35:56.313Z,24.47
2022-08-14T04:38:37.292Z,24.46
2022-08-14T04:40:58.955Z,24.46
2022-08-14T04:43:20.922Z,24.44
2022-08-14T04:45:24.515Z,24.45
2022-08-14T04:47:46.227Z,24.44
2022-08-14T04:49:56.877Z,24.42
2022-08-14T04:52:15.507Z,24.41
2022-08-14T04:54:21.225Z,24.36
2022-08-14T04:56:30.925Z,24.29
2022-08-14T04:58:37.500Z,24.25
2022-08-14T05:00:41.554Z,24.23
2022-08-14T05:02:43.764Z,24.22
2022-08-14T05:04:57.280Z,24.24
2022-08-14T05:07:00.485Z,24.20
2022-08-14T05:09:02.185Z,24.21
2022-08-14T05:11:06.703Z,24.13
2022-08-14T05:13:15.831Z,24.10
2022-08-14T05:15:19.345Z,24.14
2022-08-14T05:17:28.979Z,24.16
2022-08-14T05:21:54.325Z,24.16
2022-08-14T05:22:16.453Z,24.17
2022-08-14T05:24:19.709Z,24.14
2022-08-14T05:26:23.528Z,24.17
2022-08-14T05:28:27.683Z,24.13
2022-08-14T05:30:30.197Z,24.13
2022-08-14T05:32:31.970Z,24.12
2022-08-14T05:34:34.007Z,24.12
2022-08-14T05:36:36.609Z,24.13
2022-08-14T05:38:44.607Z,24.16
2022-08-14T05:40:49.550Z,24.17
2022-08-14T05:42:52.712Z,24.15
2022-08-14T05:44:55.913Z,24.12
2022-08-14T05:46:58.924Z,24.20
2022-08-14T05:49:00.644Z,24.19
2022-08-14T05:51:02.347Z,24.21
2022-08-14T05:53:04.179Z,24.19
2022-08-14T05:55:08.594Z,24.18
2022-08-14T05:57:10.279Z,24.25
2022-08-14T05:59:13.223Z,24.22
2022-08-14T06:01:18.550Z,24.21
2022-08-14T06:03:22.556Z,24.22
2022-08-14T06:05:28.754Z,24.21
2022-08-14T06:07:30.990Z,24.24
2022-08-14T06:09:35.953Z,24.25
2022-08-14T06:11:42.119Z,24.23
2022-08-14T06:13:45.970Z,24.24
2022-08-14T06:15:49.466Z,24.26
2022-08-14T06:18:03.831Z,24.21
2022-08-14T06:20:05.754Z,24.19
2022-08-14T06:22:12.049Z,24.18
2022-08-14T06:24:18.057Z,24.21
2022-08-14T06:26:22.151Z,24.24
2022-08-14T06:28:27.141Z,24.26
2022-08-14T06:30:46.487Z,24.26
2022-08-14T06:32:52.862Z,24.28
2022-08-14T06:35:04.169Z,24.28
2022-08-14T06:37:13.643Z,24.27
2022-08-14T06:39:18.599Z,24.24
2022-08-14T06:41:57.592Z,24.33
2022-08-14T06:44:00.817Z,24.32
2022-08-14T06:46:04.227Z,24.34
2022-08-14T06:48:17.299Z,24.36
2022-08-14T06:50:21.758Z,24.36
2022-08-14T06:52:30.051Z,24.38
2022-08-14T06:54:32.089Z,24.34
2022-08-14T06:56:34.063Z,24.43
2022-08-14T06:58:36.887Z,24.48
2022-08-14T07:00:38.976Z,24.55
2022-08-14T07:02:59.862Z,24.57
2022-08-14T07:05:22.837Z,24.61
2022-08-14T07:07:25.102Z,24.58
2022-08-14T07:09:43.719Z,24.61
2022-08-14T07:11:52.319Z,24.69
2022-08-14T07:13:53.966Z,24.69
2022-08-14T07:15:58.565Z,24.74
2022-08-14T07:18:08.973Z,24.79
2022-08-14T07:20:11.340Z,24.82
2022-08-14T07:22:20.261Z,24.85
2022-08-14T07:24:31.048Z,24.88
2022-08-14T07:26:33.499Z,24.89
2022-08-14T07:28:43.573Z,24.96
2022-08-14T07:30:50.854Z,25.01
2022-08-14T07:32:53.409Z,25.03
2022-08-14T07:34:56.923Z,25.08
2022-08-14T07:37:01.473Z,25.17
2022-08-14T07:39:12.511Z,25.23
2022-08-14T07:41:16.580Z,25.30
2022-08-14T07:43:18.535Z,25.36
2022-08-14T07:45:23.301Z,25.42
2022-08-14T07:47:25.257Z,25.45
2022-08-14T07:49:27.640Z,25.51
2022-08-14T07:51:36.765Z,25.55
2022-08-14T07:53:41.180Z,25.60
2022-08-14T07:55:43.026Z,25.68
2022-08-14T07:57:47.594Z,25.71
2022-08-14T07:59:54.013Z,25.77
2022-08-14T08:01:57.422Z,25.78
2022-08-14T08:04:03.993Z,25.85
2022-08-14T08:06:20.205Z,25.88
2022-08-14T08:08:27.278Z,25.91
2022-08-14T08:10:57.093Z,25.89
2022-08-14T08:12:57.018Z,25.97
2022-08-14T08:15:03.462Z,26.02
2022-08-14T08:17:09.727Z,26.09
2022-08-14T08:19:14.066Z,26.12
2022-08-14T08:21:16.564Z,26.16
2022-08-14T08:23:23.280Z,26.22
2022-08-14T08:25:40.109Z,26.26
2022-08-14T08:27:44.906Z,26.29
2022-08-14T08:29:50.650Z,26.34
2022-08-14T08:31:52.993Z,26.40
2022-08-14T08:33:54.899Z,26.43
2022-08-14T08:36:07.896Z,26.53
2022-08-14T08:38:14.288Z,26.54
2022-08-14T08:40:42.268Z,26.63
2022-08-14T08:42:52.117Z,26.68
2022-08-14T08:44:55.446Z,26.70
2022-08-14T08:46:59.442Z,26.76
2022-08-14T08:51:03.295Z,26.86
2022-08-14T08:53:09.706Z,26.90
2022-08-14T08:55:12.794Z,26.99
2022-08-14T08:57:15.625Z,27.06
2022-08-14T08:59:31.259Z,27.11
2022-08-14T09:01:35.877Z,27.14
2022-08-14T09:03:44.012Z,27.27
2022-08-14T09:05:58.612Z,27.34
2022-08-14T09:08:30.683Z,27.44
2022-08-14T09:10:32.737Z,27.51
2022-08-14T09:12:35.315Z,27.57
2022-08-14T09:14:37.208Z,27.65
2022-08-14T09:16:45.169Z,27.76
2022-08-14T09:18:50.544Z,27.84
2022-08-14T09:20:58.900Z,27.94
2022-08-14T09:23:01.564Z,28.05
2022-08-14T09:25:07.303Z,28.11
2022-08-14T09:27:22.184Z,28.23
2022-08-14T09:29:25.266Z,28.33
2022-08-14T09:31:49.025Z,28.45
2022-08-14T09:34:26.981Z,28.54
2022-08-14T09:37:04.724Z,28.68
2022-08-14T09:39:23.130Z,28.82
2022-08-14T09:42:21.919Z,28.96
2022-08-14T09:44:49.587Z,29.13
2022-08-14T09:46:58.220Z,29.21
2022-08-14T09:49:05.644Z,29.37
2022-08-14T09:53:10.986Z,29.66
2022-08-14T09:55:21.409Z,29.75
2022-08-14T09:57:28.974Z,29.85
2022-08-14T09:59:40.930Z,29.98
2022-08-14T10:01:43.869Z,30.14
2022-08-14T10:03:55.632Z,30.26
2022-08-14T10:06:28.334Z,30.36
2022-08-14T10:08:44.446Z,30.44
2022-08-14T10:10:48.833Z,30.62
2022-08-14T10:12:59.880Z,30.63
2022-08-14T10:15:02.020Z,30.71
2022-08-14T10:17:07.006Z,30.92
2022-08-14T10:19:15.917Z,31.09
2022-08-14T10:21:18.330Z,31.23
2022-08-14T10:23:23.481Z,31.38
2022-08-14T10:25:26.898Z,31.54
2022-08-14T10:27:29.045Z,31.70
2022-08-14T10:29:43.550Z,31.88
2022-08-14T10:31:45.850Z,31.99
2022-08-14T10:34:12.892Z,32.14
2022-08-14T10:36:36.878Z,32.26
2022-08-14T10:38:42.541Z,32.43
2022-08-14T10:40:59.155Z,32.51
2022-08-14T10:43:02.792Z,32.51
2022-08-14T10:45:30.948Z,32.75
2022-08-14T10:48:02.654Z,32.78
2022-08-14T10:50:01.217Z,32.91
2022-08-14T10:52:11.150Z,33.11
2022-08-14T10:54:16.956Z,33.23
2022-08-14T10:56:36.781Z,33.24
2022-08-14T10:58:38.785Z,33.18
2022-08-14T11:00:55.482Z,33.27
2022-08-14T11:03:01.962Z,33.21
2022-08-14T11:05:19.381Z,33.18
2022-08-14T11:07:21.725Z,33.29
2022-08-14T11:09:26.258Z,33.40
2022-08-14T11:11:28.491Z,33.41
2022-08-14T11:13:41.972Z,33.58
2022-08-14T11:15:46.731Z,33.77
2022-08-14T11:17:50.423Z,33.67
2022-08-14T11:19:58.579Z,33.82
2022-08-14T11:22:02.014Z,34.02
2022-08-14T11:24:55.222Z,34.06
2022-08-14T11:26:30.587Z,34.12
2022-08-14T11:28:47.277Z,34.25
2022-08-14T11:30:54.270Z,34.44
2022-08-14T11:32:58.695Z,34.60
2022-08-14T11:35:03.456Z,34.49
2022-08-14T11:37:18.751Z,34.66
2022-08-14T11:39:34.556Z,34.75
2022-08-14T11:41:55.533Z,34.69
2022-08-14T11:43:58.812Z,34.77
2022-08-14T11:46:03.589Z,34.80
2022-08-14T11:49:02.165Z,34.98
2022-08-14T11:50:49.843Z,34.85
2022-08-14T11:52:53.818Z,34.96
2022-08-14T11:55:09.179Z,34.83
2022-08-14T11:57:15.403Z,34.80
2022-08-14T11:59:26.557Z,35.03
2022-08-14T12:01:38.209Z,35.08
2022-08-14T12:03:51.969Z,35.06
2022-08-14T12:06:28.744Z,35.08
2022-08-14T12:08:39.188Z,35.17
2022-08-14T12:10:43.540Z,35.11
2022-08-14T12:12:45.309Z,35.06
2022-08-14T12:14:56.434Z,35.18
2022-08-14T12:17:02.176Z,35.27
2022-08-14T12:19:06.147Z,35.08
2022-08-14T12:21:15.822Z,35.15
2022-08-14T12:23:24.783Z,35.18
2022-08-14T12:25:26.870Z,35.20
2022-08-14T12:27:41.228Z,35.20
2022-08-14T12:29:53.561Z,35.37
2022-08-14T12:32:06.700Z,35.39
2022-08-14T12:34:13.598Z,35.39
2022-08-14T12:36:22.315Z,35.33
2022-08-14T12:38:38.793Z,35.23
2022-08-14T12:40:51.513Z,35.28
2022-08-14T12:42:56.664Z,35.17
2022-08-14T12:45:03.994Z,35.07
2022-08-14T12:47:15.109Z,35.03
2022-08-14T12:49:18.952Z,34.96
2022-08-14T12:51:26.965Z,34.98
2022-08-14T12:53:38.584Z,35.11
2022-08-14T12:56:18.501Z,35.20
2022-08-14T12:58:28.906Z,35.35
2022-08-14T13:00:36.615Z,35.28
2022-08-14T13:02:43.970Z,35.30
2022-08-14T13:04:50.745Z,35.32
2022-08-14T13:06:55.780Z,35.46
2022-08-14T13:09:00.057Z,35.48
2022-08-14T13:11:06.442Z,35.45
2022-08-14T13:13:15.572Z,35.43
2022-08-14T13:15:19.374Z,35.64
2022-08-14T13:17:23.015Z,35.70
2022-08-14T13:19:28.214Z,35.56
2022-08-14T13:22:05.451Z,35.75
2022-08-14T13:23:54.795Z,35.93
2022-08-14T13:25:58.381Z,36.05
2022-08-14T13:28:11.415Z,36.17
2022-08-14T13:30:33.076Z,36.18
2022-08-14T13:32:36.443Z,36.29
2022-08-14T13:34:38.493Z,36.46
2022-08-14T13:36:54.786Z,36.37
2022-08-14T13:39:01.169Z,36.50
2022-08-14T13:41:04.027Z,36.59
2022-08-14T13:43:08.922Z,36.66
2022-08-14T13:45:12.019Z,36.66
2022-08-14T13:47:15.906Z,36.85
2022-08-14T13:49:18.447Z,37.04
2022-08-14T13:51:24.478Z,37.04
2022-08-14T13:53:28.012Z,37.10
2022-08-14T13:55:35.866Z,36.94
2022-08-14T13:57:49.539Z,36.88
2022-08-14T13:59:52.186Z,37.06
2022-08-14T14:02:05.202Z,36.90
2022-08-14T14:04:11.378Z,37.08
2022-08-14T14:06:24.190Z,37.03
2022-08-14T14:08:46.044Z,36.75
2022-08-14T14:10:48.877Z,36.55
2022-08-14T14:12:55.918Z,36.33
2022-08-14T14:15:05.031Z,36.21
2022-08-14T14:17:09.047Z,36.34
2022-08-14T14:19:16.992Z,36.15
2022-08-14T14:21:21.580Z,36.15
2022-08-14T14:23:24.107Z,36.08
2022-08-14T14:25:45.616Z,36.20
2022-08-14T14:27:53.560Z,36.16
2022-08-14T14:29:58.905Z,36.03
2022-08-14T14:32:02.301Z,36.05
2022-08-14T14:34:07.357Z,36.14
2022-08-14T14:36:21.447Z,36.13
2022-08-14T14:38:30.888Z,36.08
2022-08-14T14:40:52.866Z,35.97
2022-08-14T14:42:57.698Z,35.76
2022-08-14T14:45:15.533Z,35.77
2022-08-14T14:47:22.734Z,35.76
2022-08-14T14:49:41.531Z,35.87
2022-08-14T14:51:51.643Z,35.85
2022-08-14T14:53:54.274Z,36.06
2022-08-14T14:56:48.257Z,36.16
2022-08-14T14:58:20.528Z,36.23
2022-08-14T15:00:22.450Z,36.47
2022-08-14T15:02:37.281Z,36.49
2022-08-14T15:04:43.442Z,36.53
2022-08-14T15:06:47.849Z,36.58
2022-08-14T15:08:56.705Z,36.57
2022-08-14T15:11:00.247Z,36.52
2022-08-14T15:13:04.478Z,36.43
2022-08-14T15:15:08.565Z,36.34
2022-08-14T15:17:11.046Z,36.31
2022-08-14T15:19:12.940Z,35.98
2022-08-14T15:21:15.396Z,35.71
2022-08-14T15:23:17.869Z,35.69
2022-08-14T15:25:24.377Z,35.26
2022-08-14T15:27:26.901Z,35.12
2022-08-14T15:29:30.137Z,35.15
2022-08-14T15:31:37.019Z,35.21
2022-08-14T15:34:33.775Z,35.07
2022-08-14T15:36:26.013Z,34.98
2022-08-14T15:38:34.017Z,34.88
2022-08-14T15:40:42.715Z,34.94
2022-08-14T15:42:45.483Z,34.88
2022-08-14T15:44:57.783Z,34.90
2022-08-14T15:47:07.067Z,34.85
2022-08-14T15:49:09.057Z,34.76
2022-08-14T15:51:11.640Z,34.53
2022-08-14T15:53:14.690Z,34.53
2022-08-14T15:55:16.568Z,34.56
2022-08-14T15:57:20.775Z,34.57
2022-08-14T15:59:22.471Z,34.53
2022-08-14T16:01:43.556Z,34.74
2022-08-14T16:03:49.201Z,34.89
2022-08-14T16:05:50.979Z,34.95
2022-08-14T16:07:53.640Z,34.91
2022-08-14T16:10:25.395Z,34.84
2022-08-14T16:12:19.199Z,34.81
2022-08-14T16:14:24.319Z,34.70
2022-08-14T16:16:49.412Z,34.66
2022-08-14T16:18:52.395Z,34.60
2022-08-14T16:20:57.491Z,34.53
2022-08-14T16:23:00.593Z,34.47
2022-08-14T16:25:05.288Z,34.43
2022-08-14T16:27:09.600Z,34.26
2022-08-14T16:29:22.519Z,34.27
2022-08-14T16:31:25.266Z,34.20
2022-08-14T16:33:58.863Z,34.05
2022-08-14T16:36:01.718Z,34.12
2022-08-14T16:38:19.343Z,34.01
2022-08-14T16:40:32.676Z,34.01
2022-08-14T16:42:39.186Z,33.83
2022-08-14T16:44:59.301Z,33.63
2022-08-14T16:47:04.174Z,33.61
2022-08-14T16:49:12.274Z,33.45
2022-08-14T16:51:17.792Z,33.38
2022-08-14T16:53:19.514Z,33.29
2022-08-14T16:55:30.272Z,33.18
2022-08-14T16:57:34.180Z,33.06
2022-08-14T16:59:51.902Z,32.92
2022-08-14T17:02:01.388Z,32.94
2022-08-14T17:04:24.407Z,32.75
2022-08-14T17:06:51.028Z,32.81
2022-08-14T17:08:52.775Z,32.61
2022-08-14T17:11:10.247Z,32.74
2022-08-14T17:13:20.010Z,32.62
2022-08-14T17:15:22.658Z,32.56
2022-08-14T17:17:42.735Z,32.50
2022-08-14T17:19:45.419Z,32.45
2022-08-14T17:21:57.697Z,32.36
2022-08-14T17:24:50.986Z,32.42
2022-08-14T17:26:55.294Z,32.33
2022-08-14T17:29:08.241Z,32.28
2022-08-14T17:31:10.005Z,32.22
2022-08-14T17:33:26.318Z,32.26
2022-08-14T17:35:57.505Z,32.15
2022-08-14T17:37:55.976Z,32.15
2022-08-14T17:40:15.769Z,32.07
2022-08-14T17:42:32.592Z,32.05
2022-08-14T17:44:45.616Z,32.09
2022-08-14T17:47:05.748Z,32.11
2022-08-14T17:49:16.769Z,32.09
2022-08-14T17:51:23.629Z,32.05
2022-08-14T17:53:33.105Z,32.05
2022-08-14T17:56:01.252Z,31.92
2022-08-14T17:58:20.507Z,31.93
2022-08-14T18:00:23.604Z,31.83
2022-08-14T18:02:31.815Z,31.74
2022-08-14T18:04:35.538Z,31.79
2022-08-14T18:06:58.649Z,31.76
2022-08-14T18:09:04.624Z,31.70
2022-08-14T18:11:09.084Z,31.77
2022-08-14T18:13:17.386Z,31.78
2022-08-14T18:15:19.163Z,31.79
2022-08-14T18:17:22.992Z,31.67
2022-08-14T18:19:27.124Z,31.60
2022-08-14T18:21:41.450Z,31.58
2022-08-14T18:23:51.768Z,31.58
2022-08-14T18:25:54.858Z,31.57
2022-08-14T18:28:45.031Z,31.53
2022-08-14T18:30:58.864Z,31.44
2022-08-14T18:33:15.773Z,31.47
2022-08-14T18:35:45.395Z,31.37
2022-08-14T18:37:55.731Z,31.34
2022-08-14T18:40:18.466Z,31.31
2022-08-14T18:42:23.689Z,31.34
2022-08-14T18:44:51.186Z,31.30
2022-08-14T18:47:10.007Z,31.29
2022-08-14T18:49:17.200Z,31.14
2022-08-14T18:51:44.946Z,31.15
2022-08-14T18:53:59.329Z,31.17
2022-08-14T18:56:09.631Z,31.11
2022-08-14T18:58:26.552Z,31.17
2022-08-14T19:00:33.878Z,31.07
2022-08-14T19:02:42.744Z,31.06
2022-08-14T19:04:45.182Z,31.01
2022-08-14T19:06:56.195Z,31.03
2022-08-14T19:08:58.732Z,31.03
2022-08-14T19:11:05.215Z,31.08
2022-08-14T19:13:11.816Z,30.99
2022-08-14T19:15:25.684Z,31.02
2022-08-14T19:18:15.029Z,30.98
2022-08-14T19:20:08.299Z,30.94
2022-08-14T19:22:22.451Z,30.96
2022-08-14T19:24:35.644Z,30.94
2022-08-14T19:26:54.625Z,30.97
2022-08-14T19:28:58.598Z,30.97
2022-08-14T19:31:22.709Z,30.95
2022-08-14T19:33:50.967Z,30.93
2022-08-14T19:35:55.918Z,30.94
2022-08-14T19:38:11.264Z,30.90
2022-08-14T19:40:42.745Z,30.83
2022-08-14T19:42:47.224Z,30.83
2022-08-14T19:44:52.222Z,30.83
2022-08-14T19:47:02.792Z,30.84
2022-08-14T19:49:08.702Z,30.82
2022-08-14T19:51:10.854Z,30.77
2022-08-14T19:53:16.922Z,30.74
2022-08-14T19:55:20.862Z,30.73
2022-08-14T19:57:36.666Z,30.67
2022-08-14T19:59:58.018Z,30.70
2022-08-14T20:02:00.326Z,30.70
2022-08-14T20:04:04.276Z,30.67
2022-08-14T20:06:08.590Z,30.61
2022-08-14T20:09:05.947Z,30.58
2022-08-14T20:11:06.962Z,30.55
2022-08-14T20:13:04.003Z,30.51
2022-08-14T20:15:15.395Z,30.51
2022-08-14T20:17:21.789Z,30.50
2022-08-14T20:19:28.772Z,30.49
2022-08-14T20:21:34.445Z,30.46
2022-08-14T20:23:38.207Z,30.46
2022-08-14T20:25:56.798Z,30.43
2022-08-14T20:28:29.979Z,30.36
2022-08-14T20:30:35.943Z,30.41
2022-08-14T20:32:44.342Z,30.42
2022-08-14T20:34:51.091Z,30.36
2022-08-14T20:37:09.576Z,30.31
2022-08-14T20:39:15.362Z,30.27
2022-08-14T20:41:20.597Z,30.28
2022-08-14T20:43:52.710Z,30.19
2022-08-14T20:45:55.247Z,30.16
2022-08-14T20:48:17.097Z,30.11
2022-08-14T20:50:44.928Z,30.06
2022-08-14T20:52:48.557Z,30.08
2022-08-14T20:54:51.634Z,30.05
2022-08-14T20:56:56.018Z,30.05
2022-08-14T20:58:58.101Z,30.01
2022-08-14T21:01:04.837Z,29.99
2022-08-14T21:03:30.069Z,29.97
2022-08-14T21:05:34.047Z,29.98
2022-08-14T21:07:38.898Z,29.86
2022-08-14T21:10:06.396Z,29.89
2022-08-14T21:12:08.771Z,29.87
2022-08-14T21:14:30.905Z,29.85
2022-08-14T21:16:41.659Z,29.84
2022-08-14T21:19:02.182Z,29.81
2022-08-14T21:21:09.630Z,29.80
2022-08-14T21:23:14.463Z,29.74
2022-08-14T21:25:16.897Z,29.74
2022-08-14T21:27:23.587Z,29.72
2022-08-14T21:29:25.809Z,29.64
2022-08-14T21:31:30.091Z,29.58
2022-08-14T21:33:35.715Z,29.52
2022-08-14T21:35:45.809Z,29.46
2022-08-14T21:37:50.687Z,29.38
2022-08-14T21:39:58.352Z,29.36
2022-08-14T21:42:00.912Z,29.25
2022-08-14T21:44:17.506Z,29.19
2022-08-14T21:46:22.385Z,29.17
2022-08-14T21:48:30.011Z,29.16
2022-08-14T21:50:39.514Z,29.11
2022-08-14T21:53:00.730Z,29.00
2022-08-14T21:55:08.720Z,29.07
2022-08-14T21:57:15.709Z,29.04
2022-08-14T21:59:29.005Z,28.99
2022-08-14T22:01:59.512Z,28.96
2022-08-14T22:03:59.304Z,28.92
2022-08-14T22:06:04.323Z,28.90
2022-08-14T22:08:13.877Z,28.85
2022-08-14T22:10:22.928Z,28.76
2022-08-14T22:12:45.421Z,28.77
2022-08-14T22:14:48.356Z,28.71
2022-08-14T22:17:03.355Z,28.73
2022-08-14T22:19:15.223Z,28.73
2022-08-14T22:21:21.580Z,28.66
2022-08-14T22:23:25.832Z,28.65
2022-08-14T22:25:34.137Z,28.53
2022-08-14T22:27:56.061Z,28.52
2022-08-14T22:29:58.729Z,28.54
2022-08-14T22:32:00.825Z,28.54
2022-08-14T22:34:10.726Z,28.51
2022-08-14T22:36:42.418Z,28.50
2022-08-14T22:38:49.720Z,28.45
2022-08-14T22:41:15.040Z,28.40
2022-08-14T22:43:15.920Z,28.35
2022-08-14T22:45:18.195Z,28.33
2022-08-14T22:47:24.836Z,28.33
2022-08-14T22:50:30.726Z,28.20
2022-08-14T22:51:53.725Z,28.20
2022-08-14T22:53:58.422Z,28.07
2022-08-14T22:56:00.929Z,28.13
2022-08-14T22:58:17.444Z,28.06
2022-08-14T23:00:25.563Z,28.04
2022-08-14T23:02:32.668Z,28.09
2022-08-14T23:04:54.510Z,28.04
2022-08-14T23:07:04.715Z,28.02
2022-08-14T23:09:34.949Z,28.01
2022-08-14T23:11:29.965Z,28.00
2022-08-14T23:13:33.190Z,27.97
2022-08-14T23:15:37.681Z,28.01
2022-08-14T23:17:40.708Z,27.94
2022-08-14T23:19:43.968Z,28.02
2022-08-14T23:21:48.194Z,27.96
2022-08-14T23:23:51.460Z,27.90
2022-08-14T23:26:47.095Z,27.93
2022-08-14T23:28:34.989Z,27.87
2022-08-14T23:30:49.115Z,27.89
2022-08-14T23:32:54.400Z,27.85
2022-08-14T23:34:56.564Z,27.70
2022-08-14T23:36:59.641Z,27.65
2022-08-14T23:39:10.385Z,27.55
2022-08-14T23:41:22.070Z,27.50
2022-08-14T23:43:24.794Z,27.52
2022-08-14T23:45:36.608Z,27.51
2022-08-14T23:47:51.654Z,27.36
2022-08-14T23:50:03.697Z,27.43
2022-08-14T23:52:50.375Z,27.29
2022-08-14T23:54:49.380Z,27.26
2022-08-14T23:57:02.759Z,27.22
2022-08-14T23:59:05.887Z,27.23
